createdAt,value
2023-05-19T00:01:32.116Z,47.76
2023-05-19T00:04:03.462Z,47.59
2023-05-19T00:06:33.138Z,47.69
2023-05-19T00:09:05.142Z,47.62
2023-05-19T00:11:36.624Z,47.93
2023-05-19T00:14:06.951Z,47.89
2023-05-19T00:16:36.636Z,47.82
2023-05-19T00:19:06.391Z,47.84
2023-05-19T00:21:37.112Z,47.76
2023-05-19T00:24:06.059Z,47.96
2023-05-19T00:26:34.877Z,47.86
2023-05-19T00:29:06.596Z,48.02
2023-05-19T00:31:35.425Z,47.95
2023-05-19T00:34:04.642Z,47.84
2023-05-19T00:36:35.236Z,48.15
2023-05-19T00:39:06.218Z,48.05
2023-05-19T00:41:35.216Z,48.10
2023-05-19T00:44:05.632Z,48.27
2023-05-19T00:46:34.565Z,48.51
2023-05-19T00:49:04.550Z,48.23
2023-05-19T00:51:34.472Z,48.42
2023-05-19T00:54:04.267Z,48.37
2023-05-19T00:56:33.602Z,48.55
2023-05-19T00:59:02.862Z,48.51
2023-05-19T01:01:32.738Z,48.65
2023-05-19T01:04:02.552Z,48.42
2023-05-19T01:06:31.752Z,48.65
2023-05-19T01:09:02.168Z,48.61
2023-05-19T01:11:30.969Z,48.60
2023-05-19T01:13:59.753Z,48.59
2023-05-19T01:16:32.525Z,48.62
2023-05-19T01:19:15.020Z,48.96
2023-05-19T01:21:55.869Z,48.83
2023-05-19T01:24:43.633Z,48.90
2023-05-19T01:27:31.103Z,48.94
2023-05-19T01:30:09.487Z,48.82
2023-05-19T01:32:42.313Z,48.89
2023-05-19T01:35:13.121Z,49.10
2023-05-19T01:37:43.010Z,49.01
2023-05-19T01:40:12.409Z,48.90
2023-05-19T01:42:42.113Z,49.16
2023-05-19T01:45:11.897Z,49.02
2023-05-19T01:47:42.559Z,49.12
2023-05-19T01:50:12.195Z,49.22
2023-05-19T01:52:41.107Z,49.09
2023-05-19T01:55:10.726Z,49.29
2023-05-19T01:57:40.617Z,49.19
2023-05-19T02:00:16.051Z,49.37
2023-05-19T02:02:54.845Z,49.48
2023-05-19T02:05:35.439Z,49.21
2023-05-19T02:08:18.553Z,49.17
2023-05-19T02:10:51.171Z,49.42
2023-05-19T02:13:24.867Z,49.39
2023-05-19T02:15:58.482Z,49.25
2023-05-19T02:18:30.280Z,49.51
2023-05-19T02:20:59.361Z,49.22
2023-05-19T02:23:28.041Z,49.51
2023-05-19T02:25:59.252Z,49.62
2023-05-19T02:28:28.745Z,49.45
2023-05-19T02:30:59.815Z,49.63
2023-05-19T02:33:33.451Z,49.70
2023-05-19T02:36:02.569Z,49.78
2023-05-19T02:38:31.394Z,49.65
2023-05-19T02:41:01.467Z,49.88
2023-05-19T02:43:31.003Z,49.91
2023-05-19T02:46:00.243Z,49.84
2023-05-19T02:48:29.186Z,49.96
2023-05-19T02:50:58.047Z,50.08
2023-05-19T02:53:28.861Z,50.31
2023-05-19T02:55:57.663Z,50.29
2023-05-19T02:58:26.445Z,50.01
2023-05-19T03:00:57.179Z,50.23
2023-05-19T03:03:27.453Z,50.16
2023-05-19T03:05:57.449Z,50.36
2023-05-19T03:08:26.343Z,50.42
2023-05-19T03:10:56.920Z,50.26
2023-05-19T03:13:25.875Z,50.29
2023-05-19T03:15:57.315Z,50.54
2023-05-19T03:18:26.981Z,50.50
2023-05-19T03:20:56.843Z,50.54
2023-05-19T03:23:26.976Z,50.76
2023-05-19T03:25:56.699Z,50.61
2023-05-19T03:28:27.857Z,50.65
2023-05-19T03:30:57.594Z,50.70
2023-05-19T03:33:31.861Z,50.90
2023-05-19T03:36:01.488Z,50.71
2023-05-19T03:38:32.133Z,50.88
2023-05-19T03:41:01.827Z,51.08
2023-05-19T03:43:31.047Z,51.07
2023-05-19T03:46:04.239Z,51.26
2023-05-19T03:48:51.814Z,51.10
2023-05-19T03:51:52.904Z,51.14
2023-05-19T03:54:30.151Z,51.13
2023-05-19T03:56:59.577Z,51.15
2023-05-19T03:59:28.788Z,50.92
2023-05-19T04:01:59.060Z,51.07
2023-05-19T04:04:29.281Z,51.16
2023-05-19T04:06:58.324Z,51.30
2023-05-19T04:09:27.490Z,51.42
2023-05-19T04:11:57.164Z,51.33
2023-05-19T04:14:26.577Z,51.42
2023-05-19T04:16:56.169Z,51.49
2023-05-19T04:19:25.269Z,51.31
2023-05-19T04:21:57.461Z,51.47
2023-05-19T04:24:26.598Z,51.52
2023-05-19T04:26:56.979Z,51.47
2023-05-19T04:29:27.318Z,51.74
2023-05-19T04:31:58.236Z,51.78
2023-05-19T04:34:29.008Z,51.68
2023-05-19T04:37:00.143Z,51.70
2023-05-19T04:39:30.888Z,51.44
2023-05-19T04:42:00.337Z,51.78
2023-05-19T04:44:32.652Z,51.78
2023-05-19T04:47:02.881Z,51.98
2023-05-19T04:49:31.786Z,51.78
2023-05-19T04:52:00.783Z,52.01
2023-05-19T04:54:33.254Z,51.90
2023-05-19T04:57:02.246Z,52.26
2023-05-19T04:59:33.230Z,52.27
2023-05-19T05:02:02.470Z,51.96
2023-05-19T05:04:31.833Z,52.07
2023-05-19T05:07:00.569Z,51.93
2023-05-19T05:09:30.368Z,51.81
2023-05-19T05:12:00.417Z,51.97
2023-05-19T05:14:31.375Z,52.06
2023-05-19T05:17:00.608Z,52.22
2023-05-19T05:19:29.753Z,52.22
2023-05-19T05:21:59.189Z,52.56
2023-05-19T05:24:28.986Z,52.75
2023-05-19T05:27:00.692Z,52.62
2023-05-19T05:29:30.133Z,52.67
2023-05-19T05:31:59.284Z,52.71
2023-05-19T05:34:28.488Z,52.63
2023-05-19T05:36:57.440Z,52.63
2023-05-19T05:39:29.183Z,52.69
2023-05-19T05:41:58.775Z,52.60
2023-05-19T05:44:30.246Z,52.57
2023-05-19T05:47:01.295Z,52.24
2023-05-19T05:49:30.354Z,52.25
2023-05-19T05:54:32.781Z,52.23
2023-05-19T05:57:03.936Z,52.27
2023-05-19T05:59:34.379Z,52.35
2023-05-19T06:02:03.462Z,52.24
2023-05-19T06:04:33.543Z,52.19
2023-05-19T06:07:03.691Z,52.02
2023-05-19T06:09:35.242Z,51.88
2023-05-19T06:12:06.758Z,52.17
2023-05-19T06:15:05.565Z,51.92
2023-05-19T06:17:57.329Z,51.99
2023-05-19T06:20:28.229Z,52.06
2023-05-19T06:23:00.465Z,52.05
2023-05-19T06:25:29.635Z,52.09
2023-05-19T06:28:00.713Z,52.01
2023-05-19T06:30:30.946Z,51.95
2023-05-19T06:33:29.097Z,52.05
2023-05-19T06:35:58.630Z,52.22
2023-05-19T06:38:29.022Z,52.20
2023-05-19T06:40:59.937Z,51.81
2023-05-19T06:43:30.601Z,51.96
2023-05-19T06:46:05.953Z,52.03
2023-05-19T06:48:35.358Z,52.03
2023-05-19T06:51:04.852Z,52.03
2023-05-19T06:53:35.215Z,52.24
2023-05-19T06:56:06.716Z,51.95
2023-05-19T06:58:39.771Z,51.99
2023-05-19T07:01:09.055Z,51.68
2023-05-19T07:03:45.380Z,51.70
2023-05-19T07:06:15.109Z,51.69
2023-05-19T07:08:48.057Z,52.11
2023-05-19T07:11:18.220Z,52.30
2023-05-19T07:13:50.277Z,52.13
2023-05-19T07:16:26.489Z,52.14
2023-05-19T07:18:56.945Z,51.98
2023-05-19T07:21:26.159Z,52.15
2023-05-19T07:23:57.581Z,52.18
2023-05-19T07:26:28.567Z,52.10
2023-05-19T07:28:58.843Z,52.01
2023-05-19T07:31:31.131Z,52.04
2023-05-19T07:34:01.799Z,52.11
2023-05-19T07:36:31.657Z,51.95
2023-05-19T07:39:01.908Z,51.96
2023-05-19T07:41:32.029Z,52.00
2023-05-19T07:44:08.044Z,51.97
2023-05-19T07:46:38.911Z,51.99
2023-05-19T07:49:09.589Z,51.93
2023-05-19T07:51:39.768Z,52.04
2023-05-19T07:54:09.207Z,52.13
2023-05-19T07:56:39.136Z,52.08
2023-05-19T07:59:09.400Z,52.17
2023-05-19T08:01:40.637Z,52.05
2023-05-19T08:04:13.013Z,52.00
2023-05-19T08:06:44.758Z,52.33
2023-05-19T08:09:13.810Z,52.12
2023-05-19T08:11:42.666Z,52.40
2023-05-19T08:14:13.732Z,52.38
2023-05-19T08:16:43.228Z,51.97
2023-05-19T08:19:12.180Z,51.95
2023-05-19T08:21:42.746Z,51.99
2023-05-19T08:24:11.945Z,52.20
2023-05-19T08:26:42.730Z,52.51
2023-05-19T08:29:12.081Z,52.36
2023-05-19T08:31:43.806Z,52.38
2023-05-19T08:34:38.625Z,52.40
2023-05-19T08:37:10.198Z,52.47
2023-05-19T08:39:39.029Z,52.55
2023-05-19T08:42:10.136Z,52.92
2023-05-19T08:44:42.573Z,52.78
2023-05-19T08:47:14.566Z,52.90
2023-05-19T08:49:45.744Z,52.59
2023-05-19T08:52:16.419Z,52.88
2023-05-19T08:55:04.951Z,52.66
2023-05-19T08:57:34.628Z,53.10
2023-05-19T09:00:13.868Z,53.13
2023-05-19T09:02:50.774Z,52.66
2023-05-19T09:05:30.156Z,52.68
2023-05-19T09:07:59.305Z,52.69
2023-05-19T09:10:29.852Z,52.82
2023-05-19T09:12:58.901Z,52.87
2023-05-19T09:15:31.207Z,53.03
2023-05-19T09:18:21.998Z,52.82
2023-05-19T09:20:51.331Z,52.62
2023-05-19T09:23:22.594Z,52.89
2023-05-19T09:25:52.680Z,52.75
2023-05-19T09:28:25.961Z,52.80
2023-05-19T09:31:01.438Z,53.07
2023-05-19T09:33:56.538Z,52.87
2023-05-19T09:36:27.369Z,52.58
2023-05-19T09:38:56.377Z,52.52
2023-05-19T09:41:26.755Z,52.87
2023-05-19T09:43:57.248Z,53.45
2023-05-19T09:46:30.657Z,53.21
2023-05-19T09:48:59.965Z,53.26
2023-05-19T09:55:06.905Z,53.16
2023-05-19T09:57:37.555Z,53.39
2023-05-19T10:00:14.882Z,53.50
2023-05-19T10:02:47.363Z,53.06
2023-05-19T10:05:19.517Z,53.44
2023-05-19T10:07:51.765Z,53.09
2023-05-19T10:10:23.340Z,52.79
2023-05-19T10:12:55.103Z,52.72
2023-05-19T10:15:26.534Z,52.72
2023-05-19T10:17:59.516Z,52.79
2023-05-19T10:20:29.649Z,52.88
2023-05-19T10:23:00.969Z,52.89
2023-05-19T10:25:35.208Z,53.07
2023-05-19T10:28:08.266Z,52.86
2023-05-19T10:30:41.232Z,53.04
2023-05-19T10:33:15.978Z,53.11
2023-05-19T10:35:54.428Z,53.21
2023-05-19T10:38:34.725Z,53.40
2023-05-19T10:41:11.439Z,53.04
2023-05-19T10:44:00.179Z,53.19
2023-05-19T10:46:31.214Z,53.30
2023-05-19T10:49:00.280Z,53.37
2023-05-19T10:51:31.730Z,53.38
2023-05-19T10:54:03.638Z,53.76
2023-05-19T10:56:36.489Z,53.43
2023-05-19T10:59:06.321Z,53.23
2023-05-19T11:01:38.598Z,52.98
2023-05-19T11:04:11.266Z,53.15
2023-05-19T11:06:41.573Z,53.03
2023-05-19T11:09:13.032Z,53.15
2023-05-19T11:11:52.065Z,53.07
2023-05-19T11:14:23.535Z,53.01
2023-05-19T11:16:53.389Z,53.28
2023-05-19T11:19:26.081Z,53.33
2023-05-19T11:21:57.705Z,53.29
2023-05-19T11:24:44.862Z,53.30
2023-05-19T11:27:31.850Z,53.21
2023-05-19T11:30:20.413Z,53.40
2023-05-19T11:32:50.532Z,53.20
2023-05-19T11:35:21.820Z,53.28
2023-05-19T11:37:52.712Z,53.58
2023-05-19T11:40:23.854Z,53.52
2023-05-19T11:42:53.185Z,53.45
2023-05-19T11:45:33.577Z,53.49
2023-05-19T11:48:04.279Z,53.40
2023-05-19T11:50:34.185Z,53.62
2023-05-19T11:53:04.300Z,53.49
2023-05-19T11:55:35.497Z,53.77
2023-05-19T11:58:06.206Z,53.59
2023-05-19T12:00:41.715Z,53.61
2023-05-19T12:03:12.536Z,53.71
2023-05-19T12:05:48.324Z,53.71
2023-05-19T12:08:21.904Z,53.70
2023-05-19T12:10:52.878Z,53.72
2023-05-19T12:13:23.145Z,54.11
2023-05-19T12:15:54.085Z,54.13
2023-05-19T12:18:23.833Z,54.20
2023-05-19T12:20:54.449Z,53.74
2023-05-19T12:23:25.440Z,53.83
2023-05-19T12:25:55.845Z,53.84
2023-05-19T12:28:26.405Z,54.02
2023-05-19T12:30:55.474Z,53.99
2023-05-19T12:33:27.786Z,54.17
2023-05-19T12:35:58.428Z,54.17
2023-05-19T12:38:27.950Z,54.08
2023-05-19T12:40:59.312Z,54.15
2023-05-19T12:43:28.321Z,54.11
2023-05-19T12:45:57.549Z,54.18
2023-05-19T12:48:29.061Z,54.52
2023-05-19T12:50:58.609Z,54.24
2023-05-19T12:53:29.180Z,54.12
2023-05-19T12:55:58.531Z,54.20
2023-05-19T12:58:29.332Z,54.32
2023-05-19T13:01:00.421Z,54.41
2023-05-19T13:03:33.721Z,54.32
2023-05-19T13:06:03.589Z,54.45
2023-05-19T13:08:34.198Z,54.21
2023-05-19T13:11:05.269Z,54.19
2023-05-19T13:13:35.386Z,54.26
2023-05-19T13:16:06.296Z,54.29
2023-05-19T13:18:37.968Z,54.38
2023-05-19T13:21:08.464Z,54.35
2023-05-19T13:23:38.352Z,54.38
2023-05-19T13:26:09.533Z,54.45
2023-05-19T13:28:39.834Z,54.50
2023-05-19T13:31:08.784Z,54.31
2023-05-19T13:33:42.734Z,54.54
2023-05-19T13:36:12.715Z,54.34
2023-05-19T13:38:43.132Z,54.51
2023-05-19T13:41:15.947Z,54.67
2023-05-19T13:43:44.989Z,54.52
2023-05-19T13:46:15.341Z,54.68
2023-05-19T13:48:44.699Z,54.85
2023-05-19T13:51:13.882Z,54.90
2023-05-19T13:53:44.580Z,54.89
2023-05-19T13:56:15.059Z,54.93
2023-05-19T13:58:45.602Z,54.89
2023-05-19T14:01:14.700Z,55.04
2023-05-19T14:03:44.217Z,55.22
2023-05-19T14:06:13.418Z,55.18
2023-05-19T14:08:44.380Z,55.28
2023-05-19T14:11:20.458Z,55.25
2023-05-19T14:13:53.023Z,55.09
2023-05-19T14:16:23.368Z,55.31
2023-05-19T14:18:53.853Z,55.52
2023-05-19T14:21:23.152Z,55.57
2023-05-19T14:23:52.145Z,55.36
2023-05-19T14:26:22.547Z,55.52
2023-05-19T14:28:51.849Z,55.53
2023-05-19T14:31:21.071Z,55.45
2023-05-19T14:33:53.780Z,55.45
2023-05-19T14:36:22.676Z,55.35
2023-05-19T14:38:51.478Z,55.53
2023-05-19T14:41:20.418Z,55.76
2023-05-19T14:43:51.098Z,55.87
2023-05-19T14:46:21.181Z,55.73
2023-05-19T14:48:51.482Z,55.67
2023-05-19T14:51:21.059Z,56.04
2023-05-19T14:53:51.085Z,55.78
2023-05-19T14:56:22.320Z,55.89
2023-05-19T14:58:51.171Z,56.08
2023-05-19T15:01:20.078Z,55.90
2023-05-19T15:03:49.299Z,56.11
2023-05-19T15:06:19.099Z,56.10
2023-05-19T15:08:47.840Z,55.97
2023-05-19T15:11:16.714Z,55.96
2023-05-19T15:13:47.150Z,56.03
2023-05-19T15:16:18.287Z,56.19
2023-05-19T15:18:47.922Z,56.18
2023-05-19T15:21:16.706Z,56.19
2023-05-19T15:23:48.584Z,56.36
2023-05-19T15:26:17.580Z,56.46
2023-05-19T15:28:47.802Z,56.06
2023-05-19T15:31:20.083Z,56.11
2023-05-19T15:34:15.711Z,56.28
2023-05-19T15:36:45.151Z,56.29
2023-05-19T15:39:17.539Z,56.25
2023-05-19T15:41:46.865Z,56.23
2023-05-19T15:44:15.991Z,56.24
2023-05-19T15:46:44.846Z,56.25
2023-05-19T15:49:14.159Z,56.34
2023-05-19T15:51:43.483Z,56.45
2023-05-19T15:54:14.958Z,56.48
2023-05-19T15:56:48.053Z,56.47
2023-05-19T15:59:17.368Z,56.48
2023-05-19T16:01:46.636Z,56.48
2023-05-19T16:04:18.983Z,56.37
2023-05-19T16:06:49.272Z,56.43
2023-05-19T16:09:19.928Z,56.78
2023-05-19T16:11:48.844Z,56.58
2023-05-19T16:14:18.446Z,56.61
2023-05-19T16:16:52.583Z,56.53
2023-05-19T16:19:26.749Z,56.59
2023-05-19T16:21:56.775Z,56.54
2023-05-19T16:24:26.327Z,56.65
2023-05-19T16:26:55.224Z,56.67
2023-05-19T16:29:25.771Z,56.71
2023-05-19T16:31:54.904Z,56.75
2023-05-19T16:35:09.665Z,56.79
2023-05-19T16:37:39.592Z,56.99
2023-05-19T16:40:08.803Z,57.26
2023-05-19T16:42:38.644Z,56.99
2023-05-19T16:45:09.512Z,57.13
2023-05-19T16:47:39.077Z,57.13
2023-05-19T16:50:10.112Z,57.04
2023-05-19T16:52:41.469Z,57.22
2023-05-19T16:55:12.565Z,57.18
2023-05-19T16:57:43.059Z,57.35
2023-05-19T17:00:13.708Z,57.08
2023-05-19T17:02:43.162Z,57.41
2023-05-19T17:05:12.379Z,57.38
2023-05-19T17:07:41.375Z,57.31
2023-05-19T17:10:11.820Z,57.19
2023-05-19T17:12:42.667Z,57.37
2023-05-19T17:15:13.497Z,57.23
2023-05-19T17:17:42.298Z,57.20
2023-05-19T17:20:11.654Z,57.23
2023-05-19T17:22:41.554Z,57.03
2023-05-19T17:25:10.475Z,56.94
2023-05-19T17:27:39.884Z,56.98
2023-05-19T17:30:12.224Z,57.22
2023-05-19T17:32:43.129Z,57.01
2023-05-19T17:35:13.552Z,57.09
2023-05-19T17:37:43.173Z,57.32
2023-05-19T17:40:14.627Z,57.22
2023-05-19T17:42:44.611Z,57.33
2023-05-19T17:45:15.135Z,57.39
2023-05-19T17:47:44.502Z,57.58
2023-05-19T17:50:13.925Z,57.38
2023-05-19T17:52:42.977Z,57.29
2023-05-19T17:55:12.445Z,57.34
2023-05-19T17:57:44.036Z,57.35
2023-05-19T18:00:14.163Z,57.40
2023-05-19T18:02:44.735Z,57.22
2023-05-19T18:05:16.437Z,57.49
2023-05-19T18:07:46.667Z,57.42
2023-05-19T18:10:16.612Z,57.44
2023-05-19T18:12:48.272Z,57.57
2023-05-19T18:15:18.961Z,57.60
2023-05-19T18:17:50.148Z,57.45
2023-05-19T18:20:20.014Z,57.56
2023-05-19T18:22:51.583Z,57.47
2023-05-19T18:25:21.546Z,57.57
2023-05-19T18:27:50.500Z,57.74
2023-05-19T18:30:21.729Z,57.85
2023-05-19T18:32:52.600Z,57.89
2023-05-19T18:35:23.582Z,58.12
2023-05-19T18:37:55.171Z,57.90
2023-05-19T18:40:26.836Z,57.90
2023-05-19T18:42:56.859Z,57.89
2023-05-19T18:45:26.730Z,57.98
2023-05-19T18:47:56.933Z,57.86
2023-05-19T18:50:25.979Z,57.84
2023-05-19T18:52:55.493Z,57.87
2023-05-19T18:55:24.465Z,57.90
2023-05-19T18:57:55.574Z,57.92
2023-05-19T19:00:28.072Z,58.01
2023-05-19T19:02:57.879Z,58.19
2023-05-19T19:05:28.313Z,58.24
2023-05-19T19:07:58.830Z,58.32
2023-05-19T19:10:28.701Z,58.17
2023-05-19T19:12:58.291Z,58.27
2023-05-19T19:15:28.748Z,58.31
2023-05-19T19:17:59.239Z,58.45
2023-05-19T19:20:30.035Z,58.34
2023-05-19T19:22:59.406Z,58.41
2023-05-19T19:25:29.078Z,58.44
2023-05-19T19:27:59.339Z,58.57
2023-05-19T19:30:31.531Z,58.41
2023-05-19T19:33:06.958Z,58.24
2023-05-19T19:35:37.169Z,58.45
2023-05-19T19:38:08.355Z,58.30
2023-05-19T19:40:40.500Z,58.47
2023-05-19T19:43:10.317Z,58.57
2023-05-19T19:45:42.199Z,58.43
2023-05-19T19:48:13.354Z,58.49
2023-05-19T19:50:43.026Z,58.50
2023-05-19T19:53:13.160Z,58.37
2023-05-19T19:55:43.992Z,58.45
2023-05-19T19:58:13.274Z,58.58
2023-05-19T20:00:43.356Z,58.57
2023-05-19T20:03:12.488Z,58.64
2023-05-19T20:05:41.767Z,58.74
2023-05-19T20:08:10.555Z,58.69
2023-05-19T20:10:40.643Z,58.79
2023-05-19T20:13:10.288Z,58.72
2023-05-19T20:15:39.600Z,58.79
2023-05-19T20:18:08.702Z,58.94
2023-05-19T20:20:38.200Z,58.88
2023-05-19T20:23:08.173Z,59.01
2023-05-19T20:25:54.790Z,59.01
2023-05-19T20:28:28.140Z,58.96
2023-05-19T20:30:58.565Z,59.08
2023-05-19T20:33:59.390Z,59.09
2023-05-19T20:36:30.174Z,59.19
2023-05-19T20:39:00.617Z,59.12
2023-05-19T20:41:29.498Z,59.15
2023-05-19T20:43:58.809Z,59.13
2023-05-19T20:46:29.412Z,59.08
2023-05-19T20:48:58.922Z,59.16
2023-05-19T20:51:28.876Z,59.25
2023-05-19T20:54:00.343Z,59.28
2023-05-19T20:56:30.966Z,59.38
2023-05-19T20:58:59.854Z,59.42
2023-05-19T21:01:30.284Z,59.44
2023-05-19T21:04:01.452Z,59.36
2023-05-19T21:06:30.666Z,59.45
2023-05-19T21:09:05.500Z,59.39
2023-05-19T21:11:35.639Z,59.53
2023-05-19T21:14:05.998Z,59.52
2023-05-19T21:16:39.158Z,59.47
2023-05-19T21:19:08.932Z,59.57
2023-05-19T21:21:42.132Z,59.52
2023-05-19T21:24:13.531Z,59.64
2023-05-19T21:26:43.115Z,59.77
2023-05-19T21:29:12.357Z,59.65
2023-05-19T21:31:42.281Z,59.64
2023-05-19T21:34:13.388Z,59.78
2023-05-19T21:36:44.222Z,59.80
2023-05-19T21:39:15.385Z,59.85
2023-05-19T21:41:44.601Z,59.78
2023-05-19T21:44:14.340Z,59.86
2023-05-19T21:46:45.813Z,60.01
2023-05-19T21:49:15.970Z,59.99
2023-05-19T21:51:47.328Z,59.97
2023-05-19T21:54:17.622Z,60.12
2023-05-19T21:56:46.647Z,59.99
2023-05-19T21:59:16.592Z,59.95
2023-05-19T22:01:46.800Z,60.13
2023-05-19T22:04:18.540Z,60.06
2023-05-19T22:06:50.469Z,60.10
2023-05-19T22:09:22.477Z,60.08
2023-05-19T22:11:52.175Z,60.06
2023-05-19T22:14:22.586Z,59.94
2023-05-19T22:16:51.922Z,60.09
2023-05-19T22:19:21.897Z,60.05
2023-05-19T22:22:01.983Z,60.09
2023-05-19T22:24:39.019Z,60.09
2023-05-19T22:27:08.651Z,60.17
2023-05-19T22:29:39.023Z,60.21
2023-05-19T22:32:12.395Z,60.25
2023-05-19T22:34:46.606Z,60.30
2023-05-19T22:37:15.635Z,60.26
2023-05-19T22:39:45.897Z,60.31
2023-05-19T22:42:15.775Z,60.35
2023-05-19T22:44:46.318Z,60.43
2023-05-19T22:47:15.784Z,60.43
2023-05-19T22:49:44.916Z,60.39
2023-05-19T22:52:15.318Z,60.32
2023-05-19T22:54:44.625Z,60.49
2023-05-19T22:57:15.736Z,60.53
2023-05-19T22:59:44.593Z,60.52
2023-05-19T23:02:16.305Z,60.61
2023-05-19T23:04:46.890Z,60.75
2023-05-19T23:07:18.119Z,60.69
2023-05-19T23:09:48.106Z,60.64
2023-05-19T23:12:18.604Z,60.65
2023-05-19T23:14:49.453Z,60.59
2023-05-19T23:17:20.417Z,60.53
2023-05-19T23:19:50.403Z,60.55
2023-05-19T23:22:20.626Z,60.65
2023-05-19T23:24:51.344Z,60.61
2023-05-19T23:27:20.221Z,60.68
2023-05-19T23:29:51.305Z,60.82
2023-05-19T23:32:20.376Z,60.74
2023-05-19T23:34:49.749Z,60.72
2023-05-19T23:37:18.676Z,60.69
2023-05-19T23:39:50.552Z,60.71
2023-05-19T23:42:19.497Z,60.72
2023-05-19T23:44:50.153Z,60.86
2023-05-19T23:47:18.963Z,60.75
2023-05-19T23:49:49.174Z,60.75
2023-05-19T23:52:18.783Z,60.90
2023-05-19T23:54:49.183Z,60.75
2023-05-19T23:57:20.344Z,60.84
2023-05-19T23:59:50.903Z,60.70
